sensor_id;sensor_type;location;lat;lon;timestamp;pressure;altitude;pressure_sealevel;temperature;humidity
45793;BME280;31495;42.740;22.908;2023-04-19T00:00:05;92661.69;;;10.50;68.07
45793;BME280;31495;42.740;22.908;2023-04-19T00:01:07;92674.00;;;10.36;68.59
45793;BME280;31495;42.740;22.908;2023-04-19T00:02:07;92631.69;;;9.82;70.02
45793;BME280;31495;42.740;22.908;2023-04-19T00:03:08;92660.03;;;9.88;70.37
45793;BME280;31495;42.740;22.908;2023-04-19T00:04:08;92651.28;;;9.89;70.48
45793;BME280;31495;42.740;22.908;2023-04-19T00:05:08;92667.72;;;9.95;70.91
45793;BME280;31495;42.740;22.908;2023-04-19T00:06:08;92683.00;;;9.97;70.99
45793;BME280;31495;42.740;22.908;2023-04-19T00:07:08;92650.94;;;9.86;70.96
45793;BME280;31495;42.740;22.908;2023-04-19T00:08:08;92637.81;;;9.87;70.56
45793;BME280;31495;42.740;22.908;2023-04-19T00:09:08;92677.13;;;10.08;70.42
45793;BME280;31495;42.740;22.908;2023-04-19T00:10:08;92672.59;;;10.03;70.78
45793;BME280;31495;42.740;22.908;2023-04-19T00:11:08;92669.16;;;9.91;70.78
45793;BME280;31495;42.740;22.908;2023-04-19T00:12:07;92645.78;;;9.86;70.67
45793;BME280;31495;42.740;22.908;2023-04-19T00:13:07;92623.25;;;9.74;70.39
45793;BME280;31495;42.740;22.908;2023-04-19T00:14:06;92616.28;;;9.75;70.52
45793;BME280;31495;42.740;22.908;2023-04-19T00:15:06;92615.97;;;9.83;70.27
45793;BME280;31495;42.740;22.908;2023-04-19T00:16:06;92671.13;;;10.26;70.13
45793;BME280;31495;42.740;22.908;2023-04-19T00:17:06;92670.28;;;10.32;70.10
45793;BME280;31495;42.740;22.908;2023-04-19T00:18:05;92612.22;;;9.98;69.82
45793;BME280;31495;42.740;22.908;2023-04-19T00:19:05;92657.63;;;10.24;69.80
45793;BME280;31495;42.740;22.908;2023-04-19T00:20:05;92624.97;;;10.11;69.83
45793;BME280;31495;42.740;22.908;2023-04-19T00:21:05;92655.72;;;10.31;70.04
45793;BME280;31495;42.740;22.908;2023-04-19T00:22:05;92634.59;;;10.22;69.96
45793;BME280;31495;42.740;22.908;2023-04-19T00:23:04;92667.63;;;10.51;69.68
45793;BME280;31495;42.740;22.908;2023-04-19T00:24:04;92666.75;;;10.57;69.62
45793;BME280;31495;42.740;22.908;2023-04-19T00:25:04;92625.94;;;10.28;69.74
45793;BME280;31495;42.740;22.908;2023-04-19T00:26:04;92658.63;;;10.41;69.99
45793;BME280;31495;42.740;22.908;2023-04-19T00:27:04;92666.09;;;10.50;69.96
45793;BME280;31495;42.740;22.908;2023-04-19T00:28:03;92641.25;;;10.30;70.12
45793;BME280;31495;42.740;22.908;2023-04-19T00:29:03;92664.06;;;10.52;69.96
45793;BME280;31495;42.740;22.908;2023-04-19T00:30:02;92668.88;;;10.48;70.25
45793;BME280;31495;42.740;22.908;2023-04-19T00:31:02;92666.50;;;10.46;70.33
45793;BME280;31495;42.740;22.908;2023-04-19T00:32:02;92640.38;;;10.36;70.26
45793;BME280;31495;42.740;22.908;2023-04-19T00:33:04;92663.06;;;10.53;70.05
45793;BME280;31495;42.740;22.908;2023-04-19T00:34:03;92627.44;;;10.36;70.10
45793;BME280;31495;42.740;22.908;2023-04-19T00:35:03;92638.72;;;10.42;70.12
45793;BME280;31495;42.740;22.908;2023-04-19T00:36:02;92661.72;;;10.62;69.95
45793;BME280;31495;42.740;22.908;2023-04-19T00:37:02;92649.41;;;10.45;70.18
45793;BME280;31495;42.740;22.908;2023-04-19T00:38:04;92666.97;;;10.55;70.25
45793;BME280;31495;42.740;22.908;2023-04-19T00:39:04;92649.97;;;10.47;69.91
45793;BME280;31495;42.740;22.908;2023-04-19T00:40:04;92598.34;;;10.10;69.82
45793;BME280;31495;42.740;22.908;2023-04-19T00:41:04;92662.47;;;10.51;70.10
45793;BME280;31495;42.740;22.908;2023-04-19T00:42:03;92642.75;;;10.38;69.85
45793;BME280;31495;42.740;22.908;2023-04-19T00:43:03;92639.09;;;10.27;69.92
45793;BME280;31495;42.740;22.908;2023-04-19T00:44:03;92649.94;;;10.36;70.13
45793;BME280;31495;42.740;22.908;2023-04-19T00:45:03;92648.78;;;10.32;69.88
45793;BME280;31495;42.740;22.908;2023-04-19T00:46:02;92633.22;;;10.20;70.32
45793;BME280;31495;42.740;22.908;2023-04-19T00:47:02;92628.63;;;10.22;70.00
45793;BME280;31495;42.740;22.908;2023-04-19T00:48:03;92665.38;;;10.42;70.03
45793;BME280;31495;42.740;22.908;2023-04-19T00:49:02;92665.50;;;10.47;70.26
45793;BME280;31495;42.740;22.908;2023-04-19T00:50:05;92605.03;;;10.00;70.13
45793;BME280;31495;42.740;22.908;2023-04-19T00:51:05;92670.44;;;10.19;70.53
45793;BME280;31495;42.740;22.908;2023-04-19T00:52:07;92661.91;;;10.00;71.25
45793;BME280;31495;42.740;22.908;2023-04-19T00:53:07;92666.75;;;9.78;72.24
45793;BME280;31495;42.740;22.908;2023-04-19T00:54:07;92639.53;;;9.56;72.50
45793;BME280;31495;42.740;22.908;2023-04-19T00:55:07;92657.97;;;9.60;72.87
45793;BME280;31495;42.740;22.908;2023-04-19T00:56:08;92666.88;;;9.64;73.11
45793;BME280;31495;42.740;22.908;2023-04-19T00:57:09;92645.84;;;9.42;73.33
45793;BME280;31495;42.740;22.908;2023-04-19T00:58:08;92621.06;;;9.16;73.79
45793;BME280;31495;42.740;22.908;2023-04-19T00:59:08;92657.56;;;9.45;73.92
45793;BME280;31495;42.740;22.908;2023-04-19T01:00:08;92661.47;;;9.47;74.08
45793;BME280;31495;42.740;22.908;2023-04-19T01:01:08;92642.19;;;9.31;74.26
45793;BME280;31495;42.740;22.908;2023-04-19T01:02:08;92629.84;;;9.33;74.20
45793;BME280;31495;42.740;22.908;2023-04-19T01:03:07;92654.97;;;9.45;74.34
45793;BME280;31495;42.740;22.908;2023-04-19T01:04:07;92588.78;;;9.07;74.17
45793;BME280;31495;42.740;22.908;2023-04-19T01:05:11;92657.91;;;9.48;74.30
45793;BME280;31495;42.740;22.908;2023-04-19T01:06:10;92610.03;;;9.09;74.33
45793;BME280;31495;42.740;22.908;2023-04-19T01:07:10;92651.28;;;9.34;74.53
45793;BME280;31495;42.740;22.908;2023-04-19T01:08:10;92651.50;;;9.32;74.67
45793;BME280;31495;42.740;22.908;2023-04-19T01:09:09;92633.97;;;9.16;75.00
45793;BME280;31495;42.740;22.908;2023-04-19T01:10:09;92663.13;;;9.42;74.36
45793;BME280;31495;42.740;22.908;2023-04-19T01:11:08;92605.06;;;8.89;74.85
45793;BME280;31495;42.740;22.908;2023-04-19T01:12:08;92652.53;;;9.06;75.44
45793;BME280;31495;42.740;22.908;2023-04-19T01:13:07;92631.69;;;8.82;76.42
45793;BME280;31495;42.740;22.908;2023-04-19T01:14:07;92654.38;;;8.99;76.42
45793;BME280;31495;42.740;22.908;2023-04-19T01:15:07;92628.06;;;8.65;76.94
45793;BME280;31495;42.740;22.908;2023-04-19T01:16:07;92662.91;;;8.74;77.44
45793;BME280;31495;42.740;22.908;2023-04-19T01:17:07;92660.69;;;8.78;77.85
45793;BME280;31495;42.740;22.908;2023-04-19T01:18:07;92665.53;;;8.68;78.14
45793;BME280;31495;42.740;22.908;2023-04-19T01:19:07;92636.31;;;8.49;78.35
45793;BME280;31495;42.740;22.908;2023-04-19T01:20:07;92646.63;;;8.49;78.21
45793;BME280;31495;42.740;22.908;2023-04-19T01:21:07;92636.53;;;8.40;78.65
45793;BME280;31495;42.740;22.908;2023-04-19T01:22:20;92665.75;;;8.66;79.24
45793;BME280;31495;42.740;22.908;2023-04-19T01:23:21;92588.75;;;8.06;78.63
45793;BME280;31495;42.740;22.908;2023-04-19T01:24:20;92628.47;;;8.30;79.09
45793;BME280;31495;42.740;22.908;2023-04-19T01:25:20;92666.00;;;8.58;79.02
45793;BME280;31495;42.740;22.908;2023-04-19T01:26:19;92627.44;;;8.44;78.77
45793;BME280;31495;42.740;22.908;2023-04-19T01:27:19;92650.41;;;8.46;78.67
45793;BME280;31495;42.740;22.908;2023-04-19T01:28:19;92656.00;;;8.43;78.73
45793;BME280;31495;42.740;22.908;2023-04-19T01:29:18;92636.22;;;8.30;79.26
45793;BME280;31495;42.740;22.908;2023-04-19T01:30:20;92635.19;;;8.31;79.32
45793;BME280;31495;42.740;22.908;2023-04-19T01:31:19;92634.56;;;8.36;79.09
45793;BME280;31495;42.740;22.908;2023-04-19T01:32:18;92635.97;;;8.38;78.97
45793;BME280;31495;42.740;22.908;2023-04-19T01:33:19;92657.25;;;8.59;78.75
45793;BME280;31495;42.740;22.908;2023-04-19T01:34:19;92635.19;;;8.31;78.61
45793;BME280;31495;42.740;22.908;2023-04-19T01:35:19;92643.88;;;8.43;78.72
45793;BME280;31495;42.740;22.908;2023-04-19T01:36:19;92649.19;;;8.49;78.86
45793;BME280;31495;42.740;22.908;2023-04-19T01:37:19;92652.75;;;8.48;78.62
45793;BME280;31495;42.740;22.908;2023-04-19T01:38:18;92660.03;;;8.57;78.97
45793;BME280;31495;42.740;22.908;2023-04-19T01:39:18;92659.50;;;8.49;79.10
45793;BME280;31495;42.740;22.908;2023-04-19T01:40:17;92658.31;;;8.51;79.39
45793;BME280;31495;42.740;22.908;2023-04-19T01:41:17;92630.44;;;8.35;79.11
45793;BME280;31495;42.740;22.908;2023-04-19T01:42:18;92623.06;;;8.38;78.72
45793;BME280;31495;42.740;22.908;2023-04-19T01:43:18;92641.88;;;8.39;78.82
45793;BME280;31495;42.740;22.908;2023-04-19T01:44:17;92632.00;;;8.36;79.00
45793;BME280;31495;42.740;22.908;2023-04-19T01:45:16;92657.50;;;8.51;78.94
45793;BME280;31495;42.740;22.908;2023-04-19T01:46:16;92636.94;;;8.44;78.71
45793;BME280;31495;42.740;22.908;2023-04-19T01:47:15;92661.88;;;8.50;78.54
45793;BME280;31495;42.740;22.908;2023-04-19T01:48:15;92654.97;;;8.37;79.16
45793;BME280;31495;42.740;22.908;2023-04-19T01:49:14;92660.13;;;8.37;79.48
45793;BME280;31495;42.740;22.908;2023-04-19T01:50:14;92636.88;;;8.19;79.55
45793;BME280;31495;42.740;22.908;2023-04-19T01:51:13;92643.06;;;8.04;80.28
45793;BME280;31495;42.740;22.908;2023-04-19T01:52:15;92602.19;;;7.76;80.87
45793;BME280;31495;42.740;22.908;2023-04-19T01:53:15;92660.06;;;8.19;80.91
45793;BME280;31495;42.740;22.908;2023-04-19T01:54:14;92633.13;;;8.08;80.96
45793;BME280;31495;42.740;22.908;2023-04-19T01:55:14;92625.81;;;8.05;80.93
45793;BME280;31495;42.740;22.908;2023-04-19T01:56:13;92610.41;;;7.98;80.74
45793;BME280;31495;42.740;22.908;2023-04-19T01:57:13;92629.22;;;8.05;80.51
45793;BME280;31495;42.740;22.908;2023-04-19T01:58:14;92655.03;;;8.31;80.44
45793;BME280;31495;42.740;22.908;2023-04-19T01:59:14;92658.19;;;8.33;80.28
45793;BME280;31495;42.740;22.908;2023-04-19T02:00:13;92647.28;;;8.31;80.38
45793;BME280;31495;42.740;22.908;2023-04-19T02:01:13;92642.59;;;8.21;80.12
45793;BME280;31495;42.740;22.908;2023-04-19T02:02:12;92655.19;;;8.36;80.14
45793;BME280;31495;42.740;22.908;2023-04-19T02:03:12;92657.13;;;8.47;79.80
45793;BME280;31495;42.740;22.908;2023-04-19T02:04:12;92652.63;;;8.36;79.95
45793;BME280;31495;42.740;22.908;2023-04-19T02:05:11;92657.44;;;8.25;80.22
45793;BME280;31495;42.740;22.908;2023-04-19T02:06:11;92638.88;;;8.17;80.45
45793;BME280;31495;42.740;22.908;2023-04-19T02:07:10;92616.22;;;7.80;80.79
45793;BME280;31495;42.740;22.908;2023-04-19T02:08:10;92632.88;;;7.84;81.61
45793;BME280;31495;42.740;22.908;2023-04-19T02:09:09;92657.38;;;8.00;81.54
45793;BME280;31495;42.740;22.908;2023-04-19T02:10:09;92640.78;;;7.89;81.74
45793;BME280;31495;42.740;22.908;2023-04-19T02:11:13;92655.16;;;8.10;81.88
45793;BME280;31495;42.740;22.908;2023-04-19T02:12:15;92621.34;;;7.94;81.64
45793;BME280;31495;42.740;22.908;2023-04-19T02:13:15;92635.19;;;7.99;80.63
45793;BME280;31495;42.740;22.908;2023-04-19T02:14:14;92653.38;;;8.04;81.33
45793;BME280;31495;42.740;22.908;2023-04-19T02:15:14;92546.88;;;7.47;81.05
45793;BME280;31495;42.740;22.908;2023-04-19T02:16:13;92607.66;;;7.93;81.03
45793;BME280;31495;42.740;22.908;2023-04-19T02:17:12;92614.56;;;7.99;80.75
45793;BME280;31495;42.740;22.908;2023-04-19T02:18:12;92637.03;;;8.24;80.46
45793;BME280;31495;42.740;22.908;2023-04-19T02:19:11;92654.78;;;8.39;80.37
45793;BME280;31495;42.740;22.908;2023-04-19T02:20:10;92654.63;;;8.34;79.98
45793;BME280;31495;42.740;22.908;2023-04-19T02:21:10;92657.56;;;8.37;79.79
45793;BME280;31495;42.740;22.908;2023-04-19T02:22:09;92646.19;;;8.13;80.16
45793;BME280;31495;42.740;22.908;2023-04-19T02:23:09;92658.25;;;8.19;80.37
45793;BME280;31495;42.740;22.908;2023-04-19T02:24:08;92661.22;;;8.23;80.51
45793;BME280;31495;42.740;22.908;2023-04-19T02:25:07;92649.53;;;8.20;80.23
45793;BME280;31495;42.740;22.908;2023-04-19T02:26:07;92635.38;;;7.98;80.44
45793;BME280;31495;42.740;22.908;2023-04-19T02:27:06;92646.72;;;7.83;81.33
45793;BME280;31495;42.740;22.908;2023-04-19T02:28:06;92643.94;;;7.85;81.93
45793;BME280;31495;42.740;22.908;2023-04-19T02:29:06;92620.31;;;7.56;82.39
45793;BME280;31495;42.740;22.908;2023-04-19T02:30:06;92636.28;;;7.71;82.47
45793;BME280;31495;42.740;22.908;2023-04-19T02:31:06;92631.50;;;7.75;82.62
45793;BME280;31495;42.740;22.908;2023-04-19T02:32:05;92654.19;;;7.98;82.00
45793;BME280;31495;42.740;22.908;2023-04-19T02:33:05;92630.25;;;7.91;82.13
45793;BME280;31495;42.740;22.908;2023-04-19T02:34:04;92646.66;;;7.97;81.74
45793;BME280;31495;42.740;22.908;2023-04-19T02:35:04;92648.84;;;8.00;81.76
45793;BME280;31495;42.740;22.908;2023-04-19T02:36:05;92641.72;;;8.02;81.44
45793;BME280;31495;42.740;22.908;2023-04-19T02:37:04;92648.41;;;8.09;81.51
45793;BME280;31495;42.740;22.908;2023-04-19T02:38:04;92652.69;;;8.22;81.17
45793;BME280;31495;42.740;22.908;2023-04-19T02:39:03;92637.69;;;8.13;80.57
45793;BME280;31495;42.740;22.908;2023-04-19T02:40:04;92646.47;;;8.37;80.16
45793;BME280;31495;42.740;22.908;2023-04-19T02:41:04;92635.38;;;8.36;79.44
45793;BME280;31495;42.740;22.908;2023-04-19T02:42:04;92598.63;;;8.16;79.44
45793;BME280;31495;42.740;22.908;2023-04-19T02:43:04;92648.00;;;8.51;79.45
45793;BME280;31495;42.740;22.908;2023-04-19T02:44:04;92637.28;;;8.48;79.39
45793;BME280;31495;42.740;22.908;2023-04-19T02:45:04;92650.13;;;8.54;79.25
45793;BME280;31495;42.740;22.908;2023-04-19T02:46:04;92624.41;;;8.48;79.23
45793;BME280;31495;42.740;22.908;2023-04-19T02:47:03;92614.28;;;8.53;78.56
45793;BME280;31495;42.740;22.908;2023-04-19T02:48:02;92614.28;;;8.46;78.36
45793;BME280;31495;42.740;22.908;2023-04-19T02:49:02;92643.75;;;8.63;78.06
45793;BME280;31495;42.740;22.908;2023-04-19T02:50:02;92630.28;;;8.61;77.66
45793;BME280;31495;42.740;22.908;2023-04-19T02:51:02;92647.38;;;8.81;77.42
45793;BME280;31495;42.740;22.908;2023-04-19T02:52:01;92644.44;;;8.77;77.07
45793;BME280;31495;42.740;22.908;2023-04-19T02:53:01;92629.75;;;8.46;77.55
45793;BME280;31495;42.740;22.908;2023-04-19T02:54:00;92619.69;;;8.44;77.78
45793;BME280;31495;42.740;22.908;2023-04-19T02:55:00;92637.84;;;8.56;77.62
45793;BME280;31495;42.740;22.908;2023-04-19T02:55:59;92642.25;;;8.49;77.99
45793;BME280;31495;42.740;22.908;2023-04-19T02:56:59;92612.66;;;8.20;78.13
45793;BME280;31495;42.740;22.908;2023-04-19T02:57:59;92601.00;;;8.17;78.38
45793;BME280;31495;42.740;22.908;2023-04-19T02:59:02;92644.44;;;8.45;78.25
45793;BME280;31495;42.740;22.908;2023-04-19T03:00:02;92587.38;;;8.10;78.28
45793;BME280;31495;42.740;22.908;2023-04-19T03:01:04;92624.06;;;8.37;78.37
45793;BME280;31495;42.740;22.908;2023-04-19T03:02:03;92588.69;;;8.19;78.16
45793;BME280;31495;42.740;22.908;2023-04-19T03:03:03;92627.19;;;8.46;78.26
45793;BME280;31495;42.740;22.908;2023-04-19T03:04:03;92636.63;;;8.59;78.52
45793;BME280;31495;42.740;22.908;2023-04-19T03:05:03;92634.25;;;8.57;77.78
45793;BME280;31495;42.740;22.908;2023-04-19T03:06:03;92635.06;;;8.58;77.77
45793;BME280;31495;42.740;22.908;2023-04-19T03:07:02;92638.59;;;8.63;77.91
45793;BME280;31495;42.740;22.908;2023-04-19T03:08:02;92628.69;;;8.60;77.85
45793;BME280;31495;42.740;22.908;2023-04-19T03:09:01;92625.75;;;8.57;77.87
45793;BME280;31495;42.740;22.908;2023-04-19T03:10:01;92621.19;;;8.52;77.87
45793;BME280;31495;42.740;22.908;2023-04-19T03:11:00;92622.09;;;8.33;77.53
45793;BME280;31495;42.740;22.908;2023-04-19T03:12:00;92629.41;;;8.36;77.82
45793;BME280;31495;42.740;22.908;2023-04-19T03:13:00;92594.75;;;8.00;78.40
45793;BME280;31495;42.740;22.908;2023-04-19T03:13:59;92608.50;;;8.19;78.64
45793;BME280;31495;42.740;22.908;2023-04-19T03:14:59;92609.63;;;7.98;79.12
45793;BME280;31495;42.740;22.908;2023-04-19T03:15:58;92638.47;;;8.13;79.46
45793;BME280;31495;42.740;22.908;2023-04-19T03:16:57;92610.47;;;7.85;79.63
45793;BME280;31495;42.740;22.908;2023-04-19T03:17:57;92618.41;;;7.83;79.84
45793;BME280;31495;42.740;22.908;2023-04-19T03:18:56;92624.13;;;7.85;80.10
45793;BME280;31495;42.740;22.908;2023-04-19T03:19:56;92584.66;;;7.60;80.43
45793;BME280;31495;42.740;22.908;2023-04-19T03:20:56;92624.00;;;7.73;80.93
45793;BME280;31495;42.740;22.908;2023-04-19T03:21:55;92635.81;;;7.88;80.91
45793;BME280;31495;42.740;22.908;2023-04-19T03:22:54;92637.22;;;7.90;80.82
45793;BME280;31495;42.740;22.908;2023-04-19T03:23:55;92617.22;;;7.86;80.15
45793;BME280;31495;42.740;22.908;2023-04-19T03:24:54;92622.75;;;7.89;80.40
45793;BME280;31495;42.740;22.908;2023-04-19T03:25:54;92630.34;;;8.09;80.19
45793;BME280;31495;42.740;22.908;2023-04-19T03:26:54;92592.66;;;7.83;79.98
45793;BME280;31495;42.740;22.908;2023-04-19T03:27:55;92638.47;;;8.13;80.21
45793;BME280;31495;42.740;22.908;2023-04-19T03:28:55;92634.13;;;8.14;79.58
45793;BME280;31495;42.740;22.908;2023-04-19T03:29:55;92634.44;;;8.24;79.24
45793;BME280;31495;42.740;22.908;2023-04-19T03:30:54;92636.97;;;8.31;79.18
45793;BME280;31495;42.740;22.908;2023-04-19T03:31:54;92638.75;;;8.37;78.88
45793;BME280;31495;42.740;22.908;2023-04-19T03:32:54;92625.66;;;8.38;78.47
45793;BME280;31495;42.740;22.908;2023-04-19T03:33:54;92620.47;;;8.45;78.15
45793;BME280;31495;42.740;22.908;2023-04-19T03:34:54;92618.28;;;8.42;78.29
45793;BME280;31495;42.740;22.908;2023-04-19T03:35:53;92602.06;;;8.35;78.07
45793;BME280;31495;42.740;22.908;2023-04-19T03:36:53;92614.53;;;8.44;78.03
45793;BME280;31495;42.740;22.908;2023-04-19T03:37:52;92624.53;;;8.59;77.92
45793;BME280;31495;42.740;22.908;2023-04-19T03:38:51;92612.31;;;8.48;77.90
45793;BME280;31495;42.740;22.908;2023-04-19T03:39:51;92614.03;;;8.54;77.73
45793;BME280;31495;42.740;22.908;2023-04-19T03:40:50;92614.09;;;8.48;77.62
45793;BME280;31495;42.740;22.908;2023-04-19T03:41:50;92608.56;;;8.44;77.56
45793;BME280;31495;42.740;22.908;2023-04-19T03:42:49;92638.84;;;8.55;77.73
45793;BME280;31495;42.740;22.908;2023-04-19T03:43:49;92619.91;;;8.43;77.82
45793;BME280;31495;42.740;22.908;2023-04-19T03:44:48;92634.44;;;8.62;77.73
45793;BME280;31495;42.740;22.908;2023-04-19T03:45:48;92636.56;;;8.65;77.64
45793;BME280;31495;42.740;22.908;2023-04-19T03:46:47;92630.00;;;8.70;77.48
45793;BME280;31495;42.740;22.908;2023-04-19T03:47:46;92631.59;;;8.71;77.47
45793;BME280;31495;42.740;22.908;2023-04-19T03:48:46;92618.16;;;8.62;77.08
45793;BME280;31495;42.740;22.908;2023-04-19T03:49:45;92619.34;;;8.66;76.97
45793;BME280;31495;42.740;22.908;2023-04-19T03:50:45;92626.25;;;8.65;76.69
45793;BME280;31495;42.740;22.908;2023-04-19T03:51:44;92559.25;;;8.34;76.27
45793;BME280;31495;42.740;22.908;2023-04-19T03:52:44;92601.69;;;8.63;76.10
45793;BME280;31495;42.740;22.908;2023-04-19T03:53:43;92641.81;;;8.84;75.70
45793;BME280;31495;42.740;22.908;2023-04-19T03:54:43;92637.50;;;8.78;76.13
45793;BME280;31495;42.740;22.908;2023-04-19T03:55:42;92639.09;;;8.72;76.70
45793;BME280;31495;42.740;22.908;2023-04-19T03:56:42;92603.00;;;8.47;76.89
45793;BME280;31495;42.740;22.908;2023-04-19T03:57:41;92606.06;;;8.62;75.82
45793;BME280;31495;42.740;22.908;2023-04-19T03:58:41;92644.53;;;8.89;75.80
45793;BME280;31495;42.740;22.908;2023-04-19T03:59:40;92602.91;;;8.60;75.54
45793;BME280;31495;42.740;22.908;2023-04-19T04:00:39;92636.06;;;8.82;75.50
45793;BME280;31495;42.740;22.908;2023-04-19T04:01:39;92617.69;;;8.72;75.72
45793;BME280;31495;42.740;22.908;2023-04-19T04:02:40;92613.91;;;8.74;75.52
45793;BME280;31495;42.740;22.908;2023-04-19T04:03:39;92618.06;;;8.75;75.34
45793;BME280;31495;42.740;22.908;2023-04-19T04:04:39;92619.44;;;8.78;75.54
45793;BME280;31495;42.740;22.908;2023-04-19T04:05:38;92638.59;;;8.89;75.32
45793;BME280;31495;42.740;22.908;2023-04-19T04:06:37;92636.38;;;8.92;75.16
45793;BME280;31495;42.740;22.908;2023-04-19T04:07:37;92636.38;;;8.92;75.17
45793;BME280;31495;42.740;22.908;2023-04-19T04:08:36;92619.00;;;8.81;74.35
45793;BME280;31495;42.740;22.908;2023-04-19T04:09:36;92639.91;;;8.98;74.08
45793;BME280;31495;42.740;22.908;2023-04-19T04:10:35;92641.13;;;8.95;74.55
45793;BME280;31495;42.740;22.908;2023-04-19T04:11:35;92609.22;;;8.64;74.66
45793;BME280;31495;42.740;22.908;2023-04-19T04:12:34;92604.75;;;8.53;74.62
45793;BME280;31495;42.740;22.908;2023-04-19T04:13:33;92591.16;;;8.33;74.83
45793;BME280;31495;42.740;22.908;2023-04-19T04:14:33;92650.84;;;8.68;75.01
45793;BME280;31495;42.740;22.908;2023-04-19T04:15:32;92627.84;;;8.67;74.73
45793;BME280;31495;42.740;22.908;2023-04-19T04:16:32;92617.53;;;8.67;74.56
45793;BME280;31495;42.740;22.908;2023-04-19T04:17:31;92615.88;;;8.72;74.42
45793;BME280;31495;42.740;22.908;2023-04-19T04:18:31;92645.75;;;8.87;74.31
45793;BME280;31495;42.740;22.908;2023-04-19T04:19:30;92633.06;;;8.85;74.10
45793;BME280;31495;42.740;22.908;2023-04-19T04:20:30;92652.44;;;8.94;74.04
45793;BME280;31495;42.740;22.908;2023-04-19T04:21:29;92580.31;;;8.56;73.59
45793;BME280;31495;42.740;22.908;2023-04-19T04:22:29;92635.97;;;8.95;73.33
45793;BME280;31495;42.740;22.908;2023-04-19T04:23:28;92625.72;;;8.89;73.48
45793;BME280;31495;42.740;22.908;2023-04-19T04:24:28;92627.06;;;8.91;73.58
45793;BME280;31495;42.740;22.908;2023-04-19T04:25:28;92598.75;;;8.85;73.22
45793;BME280;31495;42.740;22.908;2023-04-19T04:26:27;92613.31;;;8.97;73.13
45793;BME280;31495;42.740;22.908;2023-04-19T04:27:32;92641.50;;;9.17;72.82
45793;BME280;31495;42.740;22.908;2023-04-19T04:28:31;92580.38;;;8.74;72.90
45793;BME280;31495;42.740;22.908;2023-04-19T04:29:32;92611.00;;;8.89;73.25
45793;BME280;31495;42.740;22.908;2023-04-19T04:30:32;92637.13;;;9.18;73.39
45793;BME280;31495;42.740;22.908;2023-04-19T04:31:32;92639.06;;;9.04;73.94
45793;BME280;31495;42.740;22.908;2023-04-19T04:32:34;92602.09;;;8.85;74.11
45793;BME280;31495;42.740;22.908;2023-04-19T04:33:33;92627.91;;;9.10;73.66
45793;BME280;31495;42.740;22.908;2023-04-19T04:34:33;92643.25;;;9.24;73.83
45793;BME280;31495;42.740;22.908;2023-04-19T04:35:34;92595.19;;;9.04;73.45
45793;BME280;31495;42.740;22.908;2023-04-19T04:36:34;92640.41;;;9.32;73.41
45793;BME280;31495;42.740;22.908;2023-04-19T04:37:34;92637.59;;;9.33;73.42
45793;BME280;31495;42.740;22.908;2023-04-19T04:38:34;92633.00;;;9.35;72.80
45793;BME280;31495;42.740;22.908;2023-04-19T04:39:33;92588.78;;;9.07;72.47
45793;BME280;31495;42.740;22.908;2023-04-19T04:40:37;92620.59;;;9.26;72.89
45793;BME280;31495;42.740;22.908;2023-04-19T04:41:36;92633.06;;;9.29;72.88
45793;BME280;31495;42.740;22.908;2023-04-19T04:42:39;92629.31;;;9.25;72.94
45793;BME280;31495;42.740;22.908;2023-04-19T04:43:39;92638.31;;;9.22;73.12
45793;BME280;31495;42.740;22.908;2023-04-19T04:44:39;92608.44;;;9.08;72.98
45793;BME280;31495;42.740;22.908;2023-04-19T04:45:39;92635.28;;;9.25;73.29
45793;BME280;31495;42.740;22.908;2023-04-19T04:46:40;92604.94;;;9.02;73.39
45793;BME280;31495;42.740;22.908;2023-04-19T04:47:39;92577.81;;;8.93;73.00
45793;BME280;31495;42.740;22.908;2023-04-19T04:48:29;92583.34;;;8.96;73.08
45793;BME280;31495;42.740;22.908;2023-04-19T04:49:29;92590.22;;;8.84;72.81
45793;BME280;31495;42.740;22.908;2023-04-19T04:50:29;92612.22;;;8.87;72.85
45793;BME280;31495;42.740;22.908;2023-04-19T04:51:29;92651.00;;;8.98;73.36
45793;BME280;31495;42.740;22.908;2023-04-19T04:52:30;92625.44;;;8.72;73.46
45793;BME280;31495;42.740;22.908;2023-04-19T04:53:29;92655.44;;;8.91;74.21
45793;BME280;31495;42.740;22.908;2023-04-19T04:54:28;92608.16;;;8.72;74.13
45793;BME280;31495;42.740;22.908;2023-04-19T04:55:28;92630.69;;;8.83;74.36
45793;BME280;31495;42.740;22.908;2023-04-19T04:56:27;92651.66;;;8.94;74.47
45793;BME280;31495;42.740;22.908;2023-04-19T04:57:27;92650.69;;;8.88;74.08
45793;BME280;31495;42.740;22.908;2023-04-19T04:58:26;92622.84;;;8.72;74.62
45793;BME280;31495;42.740;22.908;2023-04-19T04:59:26;92623.81;;;8.77;74.50
45793;BME280;31495;42.740;22.908;2023-04-19T05:00:26;92637.75;;;8.95;73.94
45793;BME280;31495;42.740;22.908;2023-04-19T05:01:25;92641.13;;;8.95;74.39
45793;BME280;31495;42.740;22.908;2023-04-19T05:02:24;92604.25;;;8.88;74.39
45793;BME280;31495;42.740;22.908;2023-04-19T05:03:25;92626.47;;;8.89;73.76
45793;BME280;31495;42.740;22.908;2023-04-19T05:04:25;92642.47;;;8.98;74.06
45793;BME280;31495;42.740;22.908;2023-04-19T05:05:25;92592.53;;;8.67;73.88
45793;BME280;31495;42.740;22.908;2023-04-19T05:06:24;92643.25;;;8.98;74.49
45793;BME280;31495;42.740;22.908;2023-04-19T05:07:24;92637.88;;;9.00;74.39
45793;BME280;31495;42.740;22.908;2023-04-19T05:08:25;92606.25;;;8.86;74.70
45793;BME280;31495;42.740;22.908;2023-04-19T05:09:25;92628.38;;;9.00;74.56
45793;BME280;31495;42.740;22.908;2023-04-19T05:10:24;92609.00;;;8.91;74.35
45793;BME280;31495;42.740;22.908;2023-04-19T05:11:23;92637.72;;;9.20;73.93
45793;BME280;31495;42.740;22.908;2023-04-19T05:12:23;92636.72;;;9.21;73.92
45793;BME280;31495;42.740;22.908;2023-04-19T05:13:22;92635.72;;;9.22;73.98
45793;BME280;31495;42.740;22.908;2023-04-19T05:14:22;92633.78;;;9.17;74.09
45793;BME280;31495;42.740;22.908;2023-04-19T05:15:22;92643.03;;;9.25;73.97
45793;BME280;31495;42.740;22.908;2023-04-19T05:16:22;92634.88;;;9.28;73.80